sensor_id;sensor_type;location;lat;lon;timestamp;temperature;humidity
360;DHT22;168;48.872;9.226;2023-08-06T00:00:41;16.60;57.80
360;DHT22;168;48.872;9.226;2023-08-06T00:03:08;16.70;57.80
360;DHT22;168;48.872;9.226;2023-08-06T00:05:35;16.70;57.70
360;DHT22;168;48.872;9.226;2023-08-06T00:08:03;16.70;57.70
360;DHT22;168;48.872;9.226;2023-08-06T00:10:30;16.70;57.70
360;DHT22;168;48.872;9.226;2023-08-06T00:12:57;16.70;57.70
360;DHT22;168;48.872;9.226;2023-08-06T00:15:26;16.70;57.60
360;DHT22;168;48.872;9.226;2023-08-06T00:17:53;16.70;57.60
360;DHT22;168;48.872;9.226;2023-08-06T00:20:21;16.70;57.60
360;DHT22;168;48.872;9.226;2023-08-06T00:22:48;16.60;57.60
360;DHT22;168;48.872;9.226;2023-08-06T00:25:15;16.60;57.60
360;DHT22;168;48.872;9.226;2023-08-06T00:27:43;16.60;57.70
360;DHT22;168;48.872;9.226;2023-08-06T00:30:10;16.60;57.80
360;DHT22;168;48.872;9.226;2023-08-06T00:32:39;16.50;58.00
360;DHT22;168;48.872;9.226;2023-08-06T00:35:07;16.40;58.20
360;DHT22;168;48.872;9.226;2023-08-06T00:37:34;16.40;58.40
360;DHT22;168;48.872;9.226;2023-08-06T00:40:02;16.30;58.70
360;DHT22;168;48.872;9.226;2023-08-06T00:42:29;16.30;59.10
360;DHT22;168;48.872;9.226;2023-08-06T00:44:57;16.20;59.30
360;DHT22;168;48.872;9.226;2023-08-06T00:47:24;16.20;59.60
360;DHT22;168;48.872;9.226;2023-08-06T00:49:53;16.10;59.80
360;DHT22;168;48.872;9.226;2023-08-06T00:52:21;16.10;60.00
360;DHT22;168;48.872;9.226;2023-08-06T00:54:48;16.10;60.00
360;DHT22;168;48.872;9.226;2023-08-06T00:57:17;16.10;59.90
360;DHT22;168;48.872;9.226;2023-08-06T00:59:44;16.10;60.00
360;DHT22;168;48.872;9.226;2023-08-06T01:02:12;16.20;59.90
360;DHT22;168;48.872;9.226;2023-08-06T01:04:39;16.20;59.90
360;DHT22;168;48.872;9.226;2023-08-06T01:07:16;16.20;59.90
360;DHT22;168;48.872;9.226;2023-08-06T01:09:54;16.30;60.00
360;DHT22;168;48.872;9.226;2023-08-06T01:12:30;16.20;60.40
360;DHT22;168;48.872;9.226;2023-08-06T01:15:07;16.20;60.80
360;DHT22;168;48.872;9.226;2023-08-06T01:17:36;16.20;61.20
360;DHT22;168;48.872;9.226;2023-08-06T01:20:04;16.10;61.60
360;DHT22;168;48.872;9.226;2023-08-06T01:22:33;16.10;61.80
360;DHT22;168;48.872;9.226;2023-08-06T01:25:00;16.10;62.10
360;DHT22;168;48.872;9.226;2023-08-06T01:27:32;16.10;62.30
360;DHT22;168;48.872;9.226;2023-08-06T01:30:03;16.00;62.40
360;DHT22;168;48.872;9.226;2023-08-06T01:32:34;16.00;62.60
360;DHT22;168;48.872;9.226;2023-08-06T01:35:03;16.00;62.50
360;DHT22;168;48.872;9.226;2023-08-06T01:37:33;16.00;62.40
360;DHT22;168;48.872;9.226;2023-08-06T01:40:00;16.00;62.40
360;DHT22;168;48.872;9.226;2023-08-06T01:42:28;16.00;62.70
360;DHT22;168;48.872;9.226;2023-08-06T01:44:55;16.00;62.70
360;DHT22;168;48.872;9.226;2023-08-06T01:47:22;16.00;63.00
360;DHT22;168;48.872;9.226;2023-08-06T01:49:50;16.10;63.10
360;DHT22;168;48.872;9.226;2023-08-06T01:52:17;16.00;63.40
360;DHT22;168;48.872;9.226;2023-08-06T01:54:46;16.10;63.40
360;DHT22;168;48.872;9.226;2023-08-06T01:57:13;16.10;63.40
360;DHT22;168;48.872;9.226;2023-08-06T01:59:40;16.10;64.10
360;DHT22;168;48.872;9.226;2023-08-06T02:02:08;16.10;64.90
360;DHT22;168;48.872;9.226;2023-08-06T02:04:35;16.10;65.20
360;DHT22;168;48.872;9.226;2023-08-06T02:07:03;16.10;65.70
360;DHT22;168;48.872;9.226;2023-08-06T02:09:30;16.10;66.10
360;DHT22;168;48.872;9.226;2023-08-06T02:11:59;16.00;67.00
360;DHT22;168;48.872;9.226;2023-08-06T02:14:26;16.00;67.60
360;DHT22;168;48.872;9.226;2023-08-06T02:16:53;16.00;69.30
360;DHT22;168;48.872;9.226;2023-08-06T02:19:21;15.90;71.00
360;DHT22;168;48.872;9.226;2023-08-06T02:21:48;15.90;71.20
360;DHT22;168;48.872;9.226;2023-08-06T02:24:15;15.90;72.20
360;DHT22;168;48.872;9.226;2023-08-06T02:26:43;15.80;71.80
360;DHT22;168;48.872;9.226;2023-08-06T02:29:11;15.70;71.60
360;DHT22;168;48.872;9.226;2023-08-06T02:31:39;15.60;72.20
360;DHT22;168;48.872;9.226;2023-08-06T02:34:06;15.60;72.60
360;DHT22;168;48.872;9.226;2023-08-06T02:36:33;15.50;73.30
360;DHT22;168;48.872;9.226;2023-08-06T02:39:01;15.50;73.10
360;DHT22;168;48.872;9.226;2023-08-06T02:41:28;15.40;72.20
360;DHT22;168;48.872;9.226;2023-08-06T02:43:55;15.40;71.60
360;DHT22;168;48.872;9.226;2023-08-06T02:46:24;15.30;71.60
360;DHT22;168;48.872;9.226;2023-08-06T02:48:51;15.30;70.70
360;DHT22;168;48.872;9.226;2023-08-06T02:51:19;15.30;70.00
360;DHT22;168;48.872;9.226;2023-08-06T02:53:48;15.30;69.20
360;DHT22;168;48.872;9.226;2023-08-06T02:56:15;15.40;68.90
360;DHT22;168;48.872;9.226;2023-08-06T02:58:42;15.40;68.80
360;DHT22;168;48.872;9.226;2023-08-06T03:01:10;15.40;69.80
360;DHT22;168;48.872;9.226;2023-08-06T03:03:38;15.40;69.90
360;DHT22;168;48.872;9.226;2023-08-06T03:06:06;15.30;69.50
360;DHT22;168;48.872;9.226;2023-08-06T03:08:33;15.30;69.00
360;DHT22;168;48.872;9.226;2023-08-06T03:11:00;15.30;68.60
360;DHT22;168;48.872;9.226;2023-08-06T03:13:28;15.30;68.30
360;DHT22;168;48.872;9.226;2023-08-06T03:15:56;15.30;68.10
360;DHT22;168;48.872;9.226;2023-08-06T03:18:23;15.30;69.20
360;DHT22;168;48.872;9.226;2023-08-06T03:20:53;15.30;69.90
360;DHT22;168;48.872;9.226;2023-08-06T03:23:21;15.30;69.40
360;DHT22;168;48.872;9.226;2023-08-06T03:25:48;15.30;68.70
360;DHT22;168;48.872;9.226;2023-08-06T03:28:15;15.40;69.20
360;DHT22;168;48.872;9.226;2023-08-06T03:30:43;15.40;69.90
360;DHT22;168;48.872;9.226;2023-08-06T03:33:10;15.40;70.80
360;DHT22;168;48.872;9.226;2023-08-06T03:35:38;15.40;71.50
360;DHT22;168;48.872;9.226;2023-08-06T03:38:06;15.40;71.20
360;DHT22;168;48.872;9.226;2023-08-06T03:40:35;15.40;71.20
360;DHT22;168;48.872;9.226;2023-08-06T03:43:03;15.40;70.50
360;DHT22;168;48.872;9.226;2023-08-06T03:45:30;15.40;69.70
360;DHT22;168;48.872;9.226;2023-08-06T03:47:57;15.40;69.60
360;DHT22;168;48.872;9.226;2023-08-06T03:50:25;15.50;70.00
360;DHT22;168;48.872;9.226;2023-08-06T03:52:52;15.50;70.90
360;DHT22;168;48.872;9.226;2023-08-06T03:55:21;15.50;70.90
360;DHT22;168;48.872;9.226;2023-08-06T03:57:48;15.50;70.50
360;DHT22;168;48.872;9.226;2023-08-06T04:00:16;15.50;71.00
360;DHT22;168;48.872;9.226;2023-08-06T04:02:43;15.50;71.50
360;DHT22;168;48.872;9.226;2023-08-06T04:05:10;15.50;71.80
360;DHT22;168;48.872;9.226;2023-08-06T04:07:38;15.60;73.40
360;DHT22;168;48.872;9.226;2023-08-06T04:10:05;15.60;72.80
360;DHT22;168;48.872;9.226;2023-08-06T04:12:34;15.60;72.50
360;DHT22;168;48.872;9.226;2023-08-06T04:15:06;15.60;72.10
360;DHT22;168;48.872;9.226;2023-08-06T04:17:33;15.60;71.70
360;DHT22;168;48.872;9.226;2023-08-06T04:20:01;15.60;71.70
360;DHT22;168;48.872;9.226;2023-08-06T04:22:29;15.60;72.90
360;DHT22;168;48.872;9.226;2023-08-06T04:24:56;15.60;73.20
360;DHT22;168;48.872;9.226;2023-08-06T04:27:23;15.70;73.10
360;DHT22;168;48.872;9.226;2023-08-06T04:29:52;15.70;73.80
360;DHT22;168;48.872;9.226;2023-08-06T04:32:19;15.70;74.40
360;DHT22;168;48.872;9.226;2023-08-06T04:34:47;15.70;75.10
360;DHT22;168;48.872;9.226;2023-08-06T04:37:14;15.70;77.00
360;DHT22;168;48.872;9.226;2023-08-06T04:39:41;15.70;76.30
360;DHT22;168;48.872;9.226;2023-08-06T04:42:09;15.70;74.70
360;DHT22;168;48.872;9.226;2023-08-06T04:44:36;15.70;75.50
360;DHT22;168;48.872;9.226;2023-08-06T04:47:05;15.70;76.00
360;DHT22;168;48.872;9.226;2023-08-06T04:49:32;15.70;75.30
360;DHT22;168;48.872;9.226;2023-08-06T04:51:59;15.80;79.70
360;DHT22;168;48.872;9.226;2023-08-06T04:54:27;15.80;81.70
360;DHT22;168;48.872;9.226;2023-08-06T04:56:54;15.90;83.30
360;DHT22;168;48.872;9.226;2023-08-06T04:59:21;15.80;82.60
360;DHT22;168;48.872;9.226;2023-08-06T05:01:49;15.80;80.50
360;DHT22;168;48.872;9.226;2023-08-06T05:04:17;15.70;79.10
360;DHT22;168;48.872;9.226;2023-08-06T05:06:44;15.70;78.10
360;DHT22;168;48.872;9.226;2023-08-06T05:09:12;15.70;76.50
360;DHT22;168;48.872;9.226;2023-08-06T05:11:39;15.70;74.40
360;DHT22;168;48.872;9.226;2023-08-06T05:14:06;15.70;74.10
360;DHT22;168;48.872;9.226;2023-08-06T05:16:34;15.80;75.80
360;DHT22;168;48.872;9.226;2023-08-06T05:19:01;15.90;76.70
360;DHT22;168;48.872;9.226;2023-08-06T05:21:30;15.90;78.30
360;DHT22;168;48.872;9.226;2023-08-06T05:23:57;15.90;76.60
360;DHT22;168;48.872;9.226;2023-08-06T05:26:24;16.00;74.30
360;DHT22;168;48.872;9.226;2023-08-06T05:28:51;16.10;73.30
360;DHT22;168;48.872;9.226;2023-08-06T05:31:19;16.20;72.90
360;DHT22;168;48.872;9.226;2023-08-06T05:33:46;16.30;71.50
360;DHT22;168;48.872;9.226;2023-08-06T05:36:13;16.50;69.50
360;DHT22;168;48.872;9.226;2023-08-06T05:38:42;16.70;68.60
360;DHT22;168;48.872;9.226;2023-08-06T05:41:09;16.80;68.30
360;DHT22;168;48.872;9.226;2023-08-06T05:43:36;16.90;69.10
360;DHT22;168;48.872;9.226;2023-08-06T05:46:04;17.00;75.00
360;DHT22;168;48.872;9.226;2023-08-06T05:48:31;17.10;76.40
360;DHT22;168;48.872;9.226;2023-08-06T05:50:59;17.10;77.10
360;DHT22;168;48.872;9.226;2023-08-06T05:53:26;17.20;78.40
360;DHT22;168;48.872;9.226;2023-08-06T05:55:56;17.20;82.10
360;DHT22;168;48.872;9.226;2023-08-06T05:58:23;17.20;86.40
360;DHT22;168;48.872;9.226;2023-08-06T06:00:52;17.20;83.50
360;DHT22;168;48.872;9.226;2023-08-06T06:03:19;17.20;80.70
360;DHT22;168;48.872;9.226;2023-08-06T06:05:46;17.30;79.20
360;DHT22;168;48.872;9.226;2023-08-06T06:08:14;17.30;81.40
360;DHT22;168;48.872;9.226;2023-08-06T06:10:41;17.30;83.20
360;DHT22;168;48.872;9.226;2023-08-06T06:13:10;17.30;81.40
360;DHT22;168;48.872;9.226;2023-08-06T06:15:37;17.30;83.40
360;DHT22;168;48.872;9.226;2023-08-06T06:18:05;17.30;81.00
360;DHT22;168;48.872;9.226;2023-08-06T06:20:32;17.40;82.70
360;DHT22;168;48.872;9.226;2023-08-06T06:22:59;17.30;84.50
360;DHT22;168;48.872;9.226;2023-08-06T06:25:27;17.30;82.80
360;DHT22;168;48.872;9.226;2023-08-06T06:27:54;17.40;85.40
360;DHT22;168;48.872;9.226;2023-08-06T06:30:23;17.40;89.10
360;DHT22;168;48.872;9.226;2023-08-06T06:32:50;17.30;91.00
360;DHT22;168;48.872;9.226;2023-08-06T06:35:17;17.10;90.00
360;DHT22;168;48.872;9.226;2023-08-06T06:37:44;16.90;87.10
360;DHT22;168;48.872;9.226;2023-08-06T06:40:12;16.80;89.40
360;DHT22;168;48.872;9.226;2023-08-06T06:42:39;16.80;88.40
360;DHT22;168;48.872;9.226;2023-08-06T06:45:08;16.70;88.20
360;DHT22;168;48.872;9.226;2023-08-06T06:47:37;16.70;88.20
360;DHT22;168;48.872;9.226;2023-08-06T06:50:05;16.70;87.50
360;DHT22;168;48.872;9.226;2023-08-06T06:52:32;16.60;89.40
360;DHT22;168;48.872;9.226;2023-08-06T06:55:00;16.60;89.10
360;DHT22;168;48.872;9.226;2023-08-06T06:57:27;16.60;87.90
360;DHT22;168;48.872;9.226;2023-08-06T06:59:54;16.60;86.70
360;DHT22;168;48.872;9.226;2023-08-06T07:02:21;16.60;89.60
360;DHT22;168;48.872;9.226;2023-08-06T07:04:51;16.60;89.90
360;DHT22;168;48.872;9.226;2023-08-06T07:07:18;16.50;90.60
360;DHT22;168;48.872;9.226;2023-08-06T07:09:45;16.50;88.10
360;DHT22;168;48.872;9.226;2023-08-06T07:12:13;16.50;88.80
360;DHT22;168;48.872;9.226;2023-08-06T07:14:40;16.60;88.10
360;DHT22;168;48.872;9.226;2023-08-06T07:17:07;16.70;88.80
360;DHT22;168;48.872;9.226;2023-08-06T07:19:34;16.80;90.60
360;DHT22;168;48.872;9.226;2023-08-06T07:22:04;16.80;90.30
360;DHT22;168;48.872;9.226;2023-08-06T07:24:31;16.80;90.90
360;DHT22;168;48.872;9.226;2023-08-06T07:26:58;16.80;92.30
360;DHT22;168;48.872;9.226;2023-08-06T07:29:26;16.80;92.90
360;DHT22;168;48.872;9.226;2023-08-06T07:31:53;16.70;92.60
360;DHT22;168;48.872;9.226;2023-08-06T07:34:21;16.60;90.40
360;DHT22;168;48.872;9.226;2023-08-06T07:36:48;16.60;89.80
360;DHT22;168;48.872;9.226;2023-08-06T07:39:17;16.60;92.60
360;DHT22;168;48.872;9.226;2023-08-06T07:41:44;16.60;91.60
360;DHT22;168;48.872;9.226;2023-08-06T07:44:12;16.60;89.80
360;DHT22;168;48.872;9.226;2023-08-06T07:46:39;16.60;90.40
360;DHT22;168;48.872;9.226;2023-08-06T07:49:07;16.70;91.40
360;DHT22;168;48.872;9.226;2023-08-06T07:51:34;16.80;91.10
360;DHT22;168;48.872;9.226;2023-08-06T07:54:01;16.80;91.50
360;DHT22;168;48.872;9.226;2023-08-06T07:56:30;17.00;91.50
360;DHT22;168;48.872;9.226;2023-08-06T07:58:57;17.10;91.50
360;DHT22;168;48.872;9.226;2023-08-06T08:01:25;17.20;91.90
360;DHT22;168;48.872;9.226;2023-08-06T08:03:52;17.30;94.00
360;DHT22;168;48.872;9.226;2023-08-06T08:06:19;17.30;93.90
360;DHT22;168;48.872;9.226;2023-08-06T08:08:47;17.20;93.70
360;DHT22;168;48.872;9.226;2023-08-06T08:11:14;17.20;94.30
360;DHT22;168;48.872;9.226;2023-08-06T08:13:43;17.20;92.40
360;DHT22;168;48.872;9.226;2023-08-06T08:16:10;17.30;91.40
360;DHT22;168;48.872;9.226;2023-08-06T08:18:38;17.50;94.50
360;DHT22;168;48.872;9.226;2023-08-06T08:21:05;17.70;93.50
360;DHT22;168;48.872;9.226;2023-08-06T08:23:32;17.90;94.40
360;DHT22;168;48.872;9.226;2023-08-06T08:26:00;18.00;94.30
360;DHT22;168;48.872;9.226;2023-08-06T08:28:28;18.20;94.20
360;DHT22;168;48.872;9.226;2023-08-06T08:30:56;18.30;94.30
360;DHT22;168;48.872;9.226;2023-08-06T08:33:24;18.50;95.40
360;DHT22;168;48.872;9.226;2023-08-06T08:35:51;18.70;94.70
360;DHT22;168;48.872;9.226;2023-08-06T08:38:21;18.80;94.90
360;DHT22;168;48.872;9.226;2023-08-06T08:40:52;18.80;94.80
360;DHT22;168;48.872;9.226;2023-08-06T08:43:21;18.90;94.80
360;DHT22;168;48.872;9.226;2023-08-06T08:45:52;18.90;94.70
360;DHT22;168;48.872;9.226;2023-08-06T08:48:23;19.00;94.60
360;DHT22;168;48.872;9.226;2023-08-06T08:50:50;18.90;94.60
360;DHT22;168;48.872;9.226;2023-08-06T08:53:21;18.90;94.70
360;DHT22;168;48.872;9.226;2023-08-06T08:55:53;18.90;94.30
360;DHT22;168;48.872;9.226;2023-08-06T08:58:20;18.70;94.30
360;DHT22;168;48.872;9.226;2023-08-06T09:00:51;18.60;94.40
360;DHT22;168;48.872;9.226;2023-08-06T09:03:19;18.60;95.40
360;DHT22;168;48.872;9.226;2023-08-06T09:05:51;18.70;95.30
360;DHT22;168;48.872;9.226;2023-08-06T09:08:24;18.60;95.20
360;DHT22;168;48.872;9.226;2023-08-06T09:10:54;18.50;94.80
360;DHT22;168;48.872;9.226;2023-08-06T09:13:22;18.30;94.30
360;DHT22;168;48.872;9.226;2023-08-06T09:15:50;18.00;94.40
360;DHT22;168;48.872;9.226;2023-08-06T09:18:25;17.70;94.50
360;DHT22;168;48.872;9.226;2023-08-06T09:20:54;17.50;94.50
360;DHT22;168;48.872;9.226;2023-08-06T09:23:27;17.40;93.60
360;DHT22;168;48.872;9.226;2023-08-06T09:25:55;17.40;92.60
360;DHT22;168;48.872;9.226;2023-08-06T09:28:23;17.40;93.60
360;DHT22;168;48.872;9.226;2023-08-06T09:30:52;17.40;93.80
360;DHT22;168;48.872;9.226;2023-08-06T09:33:22;17.40;93.80
360;DHT22;168;48.872;9.226;2023-08-06T09:35:50;17.40;93.30
360;DHT22;168;48.872;9.226;2023-08-06T09:38:18;17.30;92.60
360;DHT22;168;48.872;9.226;2023-08-06T09:40:47;17.30;92.20
360;DHT22;168;48.872;9.226;2023-08-06T09:43:14;17.30;92.50
360;DHT22;168;48.872;9.226;2023-08-06T09:45:41;17.20;92.10
360;DHT22;168;48.872;9.226;2023-08-06T09:48:09;17.30;91.00
360;DHT22;168;48.872;9.226;2023-08-06T09:50:38;17.40;92.70
360;DHT22;168;48.872;9.226;2023-08-06T09:53:07;17.50;93.30
360;DHT22;168;48.872;9.226;2023-08-06T09:55:36;17.40;93.20
360;DHT22;168;48.872;9.226;2023-08-06T09:58:04;17.30;93.20
360;DHT22;168;48.872;9.226;2023-08-06T10:00:33;17.30;93.40
360;DHT22;168;48.872;9.226;2023-08-06T10:03:01;17.30;93.90
360;DHT22;168;48.872;9.226;2023-08-06T10:05:30;17.30;93.10
360;DHT22;168;48.872;9.226;2023-08-06T10:07:59;17.30;92.90
360;DHT22;168;48.872;9.226;2023-08-06T10:10:29;17.40;91.80
360;DHT22;168;48.872;9.226;2023-08-06T10:12:59;17.50;91.60
360;DHT22;168;48.872;9.226;2023-08-06T10:15:31;17.70;93.10
360;DHT22;168;48.872;9.226;2023-08-06T10:18:00;17.80;94.00
360;DHT22;168;48.872;9.226;2023-08-06T10:20:33;18.00;93.60
360;DHT22;168;48.872;9.226;2023-08-06T10:23:02;18.20;92.70
360;DHT22;168;48.872;9.226;2023-08-06T10:25:33;18.30;94.60
360;DHT22;168;48.872;9.226;2023-08-06T10:28:07;18.20;94.80
360;DHT22;168;48.872;9.226;2023-08-06T10:30:42;18.20;94.60
360;DHT22;168;48.872;9.226;2023-08-06T10:33:09;18.30;95.10
360;DHT22;168;48.872;9.226;2023-08-06T10:35:37;18.30;95.00
360;DHT22;168;48.872;9.226;2023-08-06T10:38:07;18.30;94.70
360;DHT22;168;48.872;9.226;2023-08-06T10:40:35;18.20;94.80
360;DHT22;168;48.872;9.226;2023-08-06T10:43:05;18.10;94.90
360;DHT22;168;48.872;9.226;2023-08-06T10:45:37;18.00;95.20
360;DHT22;168;48.872;9.226;2023-08-06T10:48:05;18.10;95.10
360;DHT22;168;48.872;9.226;2023-08-06T10:50:32;18.00;94.60
360;DHT22;168;48.872;9.226;2023-08-06T10:53:04;18.10;95.30
360;DHT22;168;48.872;9.226;2023-08-06T10:55:32;18.10;95.00
360;DHT22;168;48.872;9.226;2023-08-06T10:58:00;18.00;94.80
360;DHT22;168;48.872;9.226;2023-08-06T11:00:28;17.80;95.30
360;DHT22;168;48.872;9.226;2023-08-06T11:02:56;17.60;94.60
360;DHT22;168;48.872;9.226;2023-08-06T11:05:23;17.30;94.80
360;DHT22;168;48.872;9.226;2023-08-06T11:07:50;17.20;95.10
360;DHT22;168;48.872;9.226;2023-08-06T11:10:18;17.10;95.10
360;DHT22;168;48.872;9.226;2023-08-06T11:12:46;16.90;94.80
360;DHT22;168;48.872;9.226;2023-08-06T11:15:13;16.60;95.20
360;DHT22;168;48.872;9.226;2023-08-06T11:17:42;16.40;95.10
360;DHT22;168;48.872;9.226;2023-08-06T11:20:09;16.40;94.80
360;DHT22;168;48.872;9.226;2023-08-06T11:22:37;16.40;94.10
360;DHT22;168;48.872;9.226;2023-08-06T11:25:06;16.40;95.20
360;DHT22;168;48.872;9.226;2023-08-06T11:27:33;16.40;94.80
360;DHT22;168;48.872;9.226;2023-08-06T11:30:01;16.40;95.00
360;DHT22;168;48.872;9.226;2023-08-06T11:32:28;16.50;95.30
360;DHT22;168;48.872;9.226;2023-08-06T11:34:57;16.50;95.10
360;DHT22;168;48.872;9.226;2023-08-06T11:37:24;16.60;95.40
360;DHT22;168;48.872;9.226;2023-08-06T11:39:52;16.60;95.30
360;DHT22;168;48.872;9.226;2023-08-06T11:42:19;16.60;95.50
360;DHT22;168;48.872;9.226;2023-08-06T11:44:46;16.60;95.40
360;DHT22;168;48.872;9.226;2023-08-06T11:47:15;16.60;95.30
360;DHT22;168;48.872;9.226;2023-08-06T11:49:44;16.70;95.00
360;DHT22;168;48.872;9.226;2023-08-06T11:52:18;16.70;95.40
360;DHT22;168;48.872;9.226;2023-08-06T11:54:47;16.60;95.40
360;DHT22;168;48.872;9.226;2023-08-06T11:57:15;16.20;94.90
360;DHT22;168;48.872;9.226;2023-08-06T11:59:43;16.10;94.30
360;DHT22;168;48.872;9.226;2023-08-06T12:02:12;16.00;94.70
360;DHT22;168;48.872;9.226;2023-08-06T12:04:59;15.80;93.00
360;DHT22;168;48.872;9.226;2023-08-06T12:07:28;15.60;92.70
360;DHT22;168;48.872;9.226;2023-08-06T12:09:56;15.30;91.10
360;DHT22;168;48.872;9.226;2023-08-06T12:12:23;15.00;89.10
360;DHT22;168;48.872;9.226;2023-08-06T12:14:51;14.90;88.10
360;DHT22;168;48.872;9.226;2023-08-06T12:17:18;14.70;87.80
360;DHT22;168;48.872;9.226;2023-08-06T12:19:46;14.60;85.60
360;DHT22;168;48.872;9.226;2023-08-06T12:22:14;14.60;85.90
360;DHT22;168;48.872;9.226;2023-08-06T12:24:44;14.40;83.70
360;DHT22;168;48.872;9.226;2023-08-06T12:27:12;14.40;82.80
360;DHT22;168;48.872;9.226;2023-08-06T12:29:41;14.20;82.20
360;DHT22;168;48.872;9.226;2023-08-06T12:32:09;14.30;79.90
360;DHT22;168;48.872;9.226;2023-08-06T12:34:37;14.30;81.90
360;DHT22;168;48.872;9.226;2023-08-06T12:37:05;14.30;81.40
360;DHT22;168;48.872;9.226;2023-08-06T12:39:33;14.20;81.20
360;DHT22;168;48.872;9.226;2023-08-06T12:42:03;14.30;81.10
360;DHT22;168;48.872;9.226;2023-08-06T12:44:31;14.40;82.60
360;DHT22;168;48.872;9.226;2023-08-06T12:46:59;14.50;85.10
360;DHT22;168;48.872;9.226;2023-08-06T12:49:26;14.60;85.60
360;DHT22;168;48.872;9.226;2023-08-06T12:51:54;14.70;86.60
360;DHT22;168;48.872;9.226;2023-08-06T12:54:23;14.80;91.30
360;DHT22;168;48.872;9.226;2023-08-06T12:56:50;14.90;89.60
360;DHT22;168;48.872;9.226;2023-08-06T12:59:19;15.10;92.10
360;DHT22;168;48.872;9.226;2023-08-06T13:01:47;15.20;91.60
360;DHT22;168;48.872;9.226;2023-08-06T13:04:15;15.30;94.10
360;DHT22;168;48.872;9.226;2023-08-06T13:06:42;15.50;94.00
360;DHT22;168;48.872;9.226;2023-08-06T13:09:10;15.70;94.30
360;DHT22;168;48.872;9.226;2023-08-06T13:11:37;15.80;93.70
360;DHT22;168;48.872;9.226;2023-08-06T13:14:06;16.10;95.00
360;DHT22;168;48.872;9.226;2023-08-06T13:16:37;16.20;95.70
360;DHT22;168;48.872;9.226;2023-08-06T13:19:05;16.20;95.30
360;DHT22;168;48.872;9.226;2023-08-06T13:21:34;16.20;95.90
360;DHT22;168;48.872;9.226;2023-08-06T13:24:02;16.20;95.70
360;DHT22;168;48.872;9.226;2023-08-06T13:26:30;16.40;95.30
360;DHT22;168;48.872;9.226;2023-08-06T13:28:58;16.70;95.00
360;DHT22;168;48.872;9.226;2023-08-06T13:31:27;16.70;94.90
360;DHT22;168;48.872;9.226;2023-08-06T13:33:56;16.70;94.80
360;DHT22;168;48.872;9.226;2023-08-06T13:36:24;16.80;94.90
360;DHT22;168;48.872;9.226;2023-08-06T13:38:51;17.00;94.70
360;DHT22;168;48.872;9.226;2023-08-06T13:41:18;17.10;94.40
360;DHT22;168;48.872;9.226;2023-08-06T13:43:46;17.20;93.60
360;DHT22;168;48.872;9.226;2023-08-06T13:46:14;17.10;93.80
360;DHT22;168;48.872;9.226;2023-08-06T13:48:43;17.10;94.50
360;DHT22;168;48.872;9.226;2023-08-06T13:51:12;16.90;94.50
360;DHT22;168;48.872;9.226;2023-08-06T13:53:40;16.90;94.30
360;DHT22;168;48.872;9.226;2023-08-06T13:56:08;16.80;94.40
360;DHT22;168;48.872;9.226;2023-08-06T13:58:37;16.90;94.20
360;DHT22;168;48.872;9.226;2023-08-06T14:01:04;17.00;93.40
360;DHT22;168;48.872;9.226;2023-08-06T14:03:32;17.20;93.90
360;DHT22;168;48.872;9.226;2023-08-06T14:06:02;17.40;94.00
360;DHT22;168;48.872;9.226;2023-08-06T14:08:31;17.40;93.00
360;DHT22;168;48.872;9.226;2023-08-06T14:10:58;17.30;93.40
360;DHT22;168;48.872;9.226;2023-08-06T14:13:26;17.30;93.90
360;DHT22;168;48.872;9.226;2023-08-06T14:15:53;17.30;94.50
360;DHT22;168;48.872;9.226;2023-08-06T14:18:20;17.10;95.40
360;DHT22;168;48.872;9.226;2023-08-06T14:20:48;16.60;95.00
360;DHT22;168;48.872;9.226;2023-08-06T14:23:15;16.30;94.80
360;DHT22;168;48.872;9.226;2023-08-06T14:25:44;16.00;93.70
360;DHT22;168;48.872;9.226;2023-08-06T14:28:11;15.50;91.50
360;DHT22;168;48.872;9.226;2023-08-06T14:30:38;15.20;89.70
360;DHT22;168;48.872;9.226;2023-08-06T14:33:06;15.00;88.30
360;DHT22;168;48.872;9.226;2023-08-06T14:35:33;15.10;88.00
360;DHT22;168;48.872;9.226;2023-08-06T14:38:00;15.10;88.40
360;DHT22;168;48.872;9.226;2023-08-06T14:40:27;15.20;88.50
360;DHT22;168;48.872;9.226;2023-08-06T14:43:01;15.40;91.30
360;DHT22;168;48.872;9.226;2023-08-06T14:45:28;15.60;92.60
360;DHT22;168;48.872;9.226;2023-08-06T14:47:56;15.80;92.70
360;DHT22;168;48.872;9.226;2023-08-06T14:50:23;15.90;91.90
360;DHT22;168;48.872;9.226;2023-08-06T14:52:50;16.00;92.40
360;DHT22;168;48.872;9.226;2023-08-06T14:55:23;15.90;90.60
360;DHT22;168;48.872;9.226;2023-08-06T14:57:51;15.90;91.70
360;DHT22;168;48.872;9.226;2023-08-06T15:00:20;15.70;93.30
360;DHT22;168;48.872;9.226;2023-08-06T15:02:47;15.80;95.10
360;DHT22;168;48.872;9.226;2023-08-06T15:05:15;15.80;93.90
360;DHT22;168;48.872;9.226;2023-08-06T15:07:42;16.00;95.00
360;DHT22;168;48.872;9.226;2023-08-06T15:10:10;16.20;95.30
360;DHT22;168;48.872;9.226;2023-08-06T15:12:37;16.30;95.50
360;DHT22;168;48.872;9.226;2023-08-06T15:15:07;16.30;94.90
360;DHT22;168;48.872;9.226;2023-08-06T15:17:36;16.10;95.30
360;DHT22;168;48.872;9.226;2023-08-06T15:20:04;15.90;95.00
360;DHT22;168;48.872;9.226;2023-08-06T15:22:32;15.70;95.30
360;DHT22;168;48.872;9.226;2023-08-06T15:25:00;15.60;95.00
360;DHT22;168;48.872;9.226;2023-08-06T15:27:27;15.50;95.10
360;DHT22;168;48.872;9.226;2023-08-06T15:29:55;15.50;94.40
360;DHT22;168;48.872;9.226;2023-08-06T15:32:22;15.70;95.00
360;DHT22;168;48.872;9.226;2023-08-06T15:34:52;15.90;94.90
360;DHT22;168;48.872;9.226;2023-08-06T15:37:20;16.00;95.50
360;DHT22;168;48.872;9.226;2023-08-06T15:39:47;15.90;95.40
360;DHT22;168;48.872;9.226;2023-08-06T15:42:14;16.00;95.30
360;DHT22;168;48.872;9.226;2023-08-06T15:44:42;16.10;95.70
360;DHT22;168;48.872;9.226;2023-08-06T15:47:09;16.20;95.50
360;DHT22;168;48.872;9.226;2023-08-06T15:49:37;16.30;95.30
360;DHT22;168;48.872;9.226;2023-08-06T15:52:06;16.30;95.10
360;DHT22;168;48.872;9.226;2023-08-06T15:54:34;16.40;95.20
360;DHT22;168;48.872;9.226;2023-08-06T15:57:01;16.30;95.50
360;DHT22;168;48.872;9.226;2023-08-06T15:59:30;16.10;95.50
360;DHT22;168;48.872;9.226;2023-08-06T16:01:58;16.00;95.40
360;DHT22;168;48.872;9.226;2023-08-06T16:04:27;16.00;95.40
360;DHT22;168;48.872;9.226;2023-08-06T16:06:54;16.10;95.20
360;DHT22;168;48.872;9.226;2023-08-06T16:09:23;16.20;95.10
360;DHT22;168;48.872;9.226;2023-08-06T16:11:52;16.30;95.00
360;DHT22;168;48.872;9.226;2023-08-06T16:14:19;16.20;94.90
360;DHT22;168;48.872;9.226;2023-08-06T16:16:47;16.20;94.80
360;DHT22;168;48.872;9.226;2023-08-06T16:19:14;16.10;95.30
360;DHT22;168;48.872;9.226;2023-08-06T16:21:41;15.80;95.50
360;DHT22;168;48.872;9.226;2023-08-06T16:24:09;15.50;94.30
360;DHT22;168;48.872;9.226;2023-08-06T16:26:37;15.30;93.90
360;DHT22;168;48.872;9.226;2023-08-06T16:29:05;15.10;93.30
360;DHT22;168;48.872;9.226;2023-08-06T16:31:32;14.90;91.90
360;DHT22;168;48.872;9.226;2023-08-06T16:34:00;14.80;91.30
360;DHT22;168;48.872;9.226;2023-08-06T16:36:27;14.60;88.60
360;DHT22;168;48.872;9.226;2023-08-06T16:38:54;14.50;86.20